createdAt,value
2022-08-11T00:02:02.882Z,18.37
2022-08-11T00:04:39.537Z,20.50
2022-08-11T00:07:13.059Z,16.05
2022-08-11T00:09:46.266Z,17.42
2022-08-11T00:12:19.875Z,15.88
2022-08-11T00:15:02.673Z,20.68
2022-08-11T00:17:36.707Z,19.05
2022-08-11T00:20:16.512Z,17.85
2022-08-11T00:22:50.291Z,17.70
2022-08-11T00:25:24.287Z,16.15
2022-08-11T00:30:32.229Z,16.15
2022-08-11T00:33:05.270Z,16.77
2022-08-11T00:35:52.114Z,16.05
2022-08-11T00:38:14.239Z,18.25
2022-08-11T00:41:12.995Z,20.70
2022-08-11T00:44:39.403Z,20.65
2022-08-11T00:47:56.296Z,19.32
2022-08-11T00:50:44.659Z,18.48
2022-08-11T00:53:47.174Z,19.37
2022-08-11T00:57:02.524Z,18.55
2022-08-11T01:00:05.821Z,21.25
2022-08-11T01:03:11.361Z,19.57
2022-08-11T01:06:33.168Z,18.37
2022-08-11T01:09:34.182Z,17.02
2022-08-11T01:12:42.768Z,20.92
2022-08-11T01:15:57.555Z,17.85
2022-08-11T01:19:11.112Z,17.02
2022-08-11T01:22:09.487Z,17.87
2022-08-11T01:25:10.771Z,18.65
2022-08-11T01:28:08.243Z,17.52
2022-08-11T01:31:00.868Z,16.50
2022-08-11T01:34:05.714Z,16.87
2022-08-11T01:39:50.419Z,17.95
2022-08-11T01:42:53.922Z,19.20
2022-08-11T01:45:44.591Z,19.90
2022-08-11T01:48:59.830Z,18.27
2022-08-11T01:52:03.373Z,21.42
2022-08-11T01:54:50.024Z,18.10
2022-08-11T01:57:32.028Z,23.47
2022-08-11T02:00:12.429Z,18.10
2022-08-11T02:03:06.381Z,19.95
2022-08-11T02:05:59.997Z,20.35
2022-08-11T02:08:50.945Z,19.20
2022-08-11T02:11:35.725Z,21.37
2022-08-11T02:14:40.285Z,22.27
2022-08-11T02:17:22.761Z,22.30
2022-08-11T02:20:22.160Z,34.63
2022-08-11T02:24:05.387Z,37.78
2022-08-11T02:26:19.165Z,27.58
2022-08-11T02:29:18.066Z,30.05
2022-08-11T02:32:30.657Z,26.68
2022-08-11T02:35:13.505Z,32.00
2022-08-11T02:38:17.907Z,34.65
2022-08-11T02:41:34.006Z,39.00
2022-08-11T02:44:20.101Z,27.77
2022-08-11T02:47:36.214Z,23.20
2022-08-11T02:50:16.224Z,21.62
2022-08-11T02:53:05.472Z,24.05
2022-08-11T02:55:57.057Z,25.10
2022-08-11T02:58:41.575Z,22.37
2022-08-11T03:01:28.408Z,22.77
2022-08-11T03:04:14.972Z,25.85
2022-08-11T03:07:01.123Z,24.00
2022-08-11T03:09:47.923Z,25.57
2022-08-11T03:12:43.282Z,28.07
2022-08-11T03:15:40.045Z,22.37
2022-08-11T03:18:36.273Z,22.77
2022-08-11T03:22:01.605Z,23.62
2022-08-11T03:24:24.862Z,23.32
2022-08-11T03:27:22.341Z,27.17
2022-08-11T03:30:43.947Z,26.95
2022-08-11T03:33:48.502Z,24.67
2022-08-11T03:37:16.527Z,30.27
2022-08-11T03:39:58.164Z,41.53
2022-08-11T03:43:03.217Z,37.00
2022-08-11T03:46:01.276Z,28.25
2022-08-11T03:49:11.212Z,29.82
2022-08-11T03:52:20.818Z,26.77
2022-08-11T03:55:07.769Z,28.42
2022-08-11T03:58:11.057Z,29.92
2022-08-11T04:01:08.179Z,28.35
2022-08-11T04:04:00.590Z,27.35
2022-08-11T04:06:57.928Z,24.30
2022-08-11T04:09:58.085Z,25.80
2022-08-11T04:12:47.779Z,30.27
2022-08-11T04:16:11.112Z,28.50
2022-08-11T04:19:10.068Z,30.80
2022-08-11T04:22:08.651Z,26.80
2022-08-11T04:25:23.702Z,27.82
2022-08-11T04:28:33.623Z,26.57
2022-08-11T04:31:50.342Z,37.13
2022-08-11T04:34:36.769Z,35.00
2022-08-11T04:37:35.880Z,32.83
2022-08-11T04:40:21.825Z,33.33
2022-08-11T04:43:32.776Z,35.60
2022-08-11T04:46:37.472Z,39.98
2022-08-11T04:50:07.423Z,42.88
2022-08-11T04:53:14.888Z,33.23
2022-08-11T04:56:28.471Z,43.35
2022-08-11T04:59:44.658Z,43.85
2022-08-11T05:02:51.225Z,35.05
2022-08-11T05:05:34.079Z,34.23
2022-08-11T05:08:37.135Z,35.03
2022-08-11T05:11:31.871Z,34.08
2022-08-11T05:14:39.236Z,35.48
2022-08-11T05:17:34.288Z,32.50
2022-08-11T05:20:29.479Z,36.42
2022-08-11T05:23:24.027Z,30.02
2022-08-11T05:26:47.373Z,33.08
2022-08-11T05:29:20.174Z,28.95
2022-08-11T05:32:13.123Z,34.85
2022-08-11T05:34:55.559Z,32.78
2022-08-11T05:37:36.077Z,33.80
2022-08-11T05:40:30.874Z,35.25
2022-08-11T05:43:26.423Z,34.70
2022-08-11T05:46:24.172Z,31.68
2022-08-11T05:49:14.937Z,36.80
2022-08-11T05:52:13.051Z,33.08
2022-08-11T05:54:59.474Z,35.23
2022-08-11T05:57:45.436Z,38.80
2022-08-11T06:00:11.151Z,35.17
2022-08-11T06:02:57.903Z,34.13
2022-08-11T06:05:44.150Z,35.73
2022-08-11T06:08:15.302Z,37.53
2022-08-11T06:10:48.733Z,34.90
2022-08-11T06:13:23.151Z,35.45
2022-08-11T06:15:56.334Z,37.53
2022-08-11T06:18:30.673Z,38.97
2022-08-11T06:21:03.800Z,39.60
2022-08-11T06:23:38.423Z,43.27
2022-08-11T06:26:13.064Z,37.48
2022-08-11T06:28:47.351Z,40.05
2022-08-11T06:31:26.530Z,40.28
2022-08-11T06:34:27.724Z,39.05
2022-08-11T06:37:22.244Z,34.80
2022-08-11T06:40:08.870Z,40.10
2022-08-11T06:42:51.925Z,41.98
2022-08-11T06:46:04.847Z,33.23
2022-08-11T06:48:40.148Z,30.62
2022-08-11T06:51:13.381Z,39.40
2022-08-11T06:54:03.589Z,36.88
2022-08-11T06:57:26.254Z,31.95
2022-08-11T06:59:49.425Z,33.50
2022-08-11T07:02:34.286Z,34.15
2022-08-11T07:05:29.888Z,33.92
2022-08-11T07:08:35.843Z,31.60
2022-08-11T07:11:33.185Z,32.10
2022-08-11T07:14:24.679Z,36.45
2022-08-11T07:16:59.007Z,38.17
2022-08-11T07:19:50.529Z,35.10
2022-08-11T07:22:42.571Z,32.53
2022-08-11T07:25:35.515Z,33.35
2022-08-11T07:28:31.720Z,34.27
2022-08-11T07:31:09.260Z,32.90
2022-08-11T07:34:08.335Z,35.10
2022-08-11T07:36:31.026Z,36.60
2022-08-11T07:39:05.086Z,33.02
2022-08-11T07:41:39.410Z,36.42
2022-08-11T07:47:05.153Z,30.92
2022-08-11T07:49:57.437Z,38.23
2022-08-11T07:52:34.355Z,36.98
2022-08-11T07:55:17.238Z,32.88
2022-08-11T07:58:16.068Z,30.92
2022-08-11T08:01:10.396Z,30.90
2022-08-11T08:03:59.784Z,31.02
2022-08-11T08:06:52.496Z,32.25
2022-08-11T08:09:45.023Z,26.52
2022-08-11T08:12:36.446Z,29.95
2022-08-11T08:15:30.317Z,28.40
2022-08-11T08:18:09.376Z,30.10
2022-08-11T08:20:51.046Z,29.10
2022-08-11T08:23:35.965Z,34.15
2022-08-11T08:26:22.757Z,33.73
2022-08-11T08:28:58.265Z,25.60
2022-08-11T08:31:31.475Z,26.10
2022-08-11T08:34:04.926Z,25.80
2022-08-11T08:36:38.457Z,22.45
2022-08-11T08:39:11.358Z,23.18
2022-08-11T08:41:45.824Z,25.40
2022-08-11T08:44:37.712Z,28.20
2022-08-11T08:46:58.304Z,27.62
2022-08-11T08:49:46.636Z,21.97
2022-08-11T08:52:30.557Z,24.10
2022-08-11T08:55:03.380Z,20.80
2022-08-11T08:57:39.815Z,22.07
2022-08-11T09:00:20.718Z,21.90
2022-08-11T09:02:51.012Z,27.40
2022-08-11T09:05:25.389Z,22.80
2022-08-11T09:07:58.999Z,19.10
2022-08-11T09:10:33.159Z,23.77
2022-08-11T09:13:09.363Z,19.02
2022-08-11T09:15:42.312Z,21.12
2022-08-11T09:18:15.320Z,20.90
2022-08-11T09:20:49.812Z,24.23
2022-08-11T09:24:07.509Z,22.15
2022-08-11T09:26:33.735Z,23.62
2022-08-11T09:29:07.170Z,22.00
2022-08-11T09:31:40.661Z,28.02
2022-08-11T09:34:14.764Z,24.90
2022-08-11T09:37:05.800Z,26.23
2022-08-11T09:39:59.729Z,26.57
2022-08-11T09:42:50.745Z,27.32
2022-08-11T09:45:23.851Z,22.48
2022-08-11T09:47:57.441Z,26.75
2022-08-11T09:50:32.280Z,21.68
2022-08-11T09:53:36.826Z,26.60
2022-08-11T09:55:42.007Z,23.65
2022-08-11T09:58:42.516Z,29.82
2022-08-11T10:00:54.057Z,24.85
2022-08-11T10:03:30.726Z,23.27
2022-08-11T10:06:33.147Z,19.77
2022-08-11T10:08:58.790Z,19.45
2022-08-11T10:11:32.215Z,22.07
2022-08-11T10:14:33.343Z,22.00
2022-08-11T10:17:00.934Z,22.02
2022-08-11T10:19:38.062Z,23.50
2022-08-11T10:22:29.108Z,22.02
2022-08-11T10:25:22.053Z,22.58
2022-08-11T10:28:17.767Z,19.42
2022-08-11T10:30:49.606Z,23.12
2022-08-11T10:33:57.592Z,21.33
2022-08-11T10:36:16.319Z,23.85
2022-08-11T10:38:51.794Z,22.77
2022-08-11T10:42:08.305Z,21.33
2022-08-11T10:44:20.700Z,19.62
2022-08-11T10:47:12.600Z,21.02
2022-08-11T10:49:47.230Z,22.82
2022-08-11T10:52:37.934Z,26.55
2022-08-11T10:55:28.980Z,26.45
2022-08-11T10:58:19.856Z,22.95
2022-08-11T11:00:56.011Z,21.57
2022-08-11T11:03:31.479Z,21.02
2022-08-11T11:06:45.125Z,21.50
2022-08-11T11:09:34.038Z,24.98
2022-08-11T11:12:45.409Z,20.75
2022-08-11T11:15:39.262Z,20.88
2022-08-11T11:18:20.301Z,23.02
2022-08-11T11:21:15.343Z,23.25
2022-08-11T11:24:29.710Z,22.80
2022-08-11T11:27:13.417Z,27.05
2022-08-11T11:30:03.121Z,21.30
2022-08-11T11:33:20.116Z,19.92
2022-08-11T11:36:15.820Z,22.75
2022-08-11T11:38:49.349Z,24.47
2022-08-11T11:41:28.084Z,21.68
2022-08-11T11:44:02.264Z,20.82
2022-08-11T11:46:39.203Z,23.10
2022-08-11T11:49:15.991Z,20.37
2022-08-11T11:51:49.962Z,20.60
2022-08-11T11:54:26.804Z,19.87
2022-08-11T11:57:02.079Z,21.50
2022-08-11T11:59:53.502Z,20.45
2022-08-11T12:02:28.398Z,18.10
2022-08-11T12:05:02.355Z,29.60
2022-08-11T12:07:57.033Z,20.35
2022-08-11T12:10:30.642Z,24.50
2022-08-11T12:13:22.845Z,20.17
2022-08-11T12:16:32.326Z,21.17
2022-08-11T12:18:36.349Z,21.55
2022-08-11T12:21:10.791Z,20.27
2022-08-11T12:24:04.758Z,19.95
2022-08-11T12:27:15.024Z,21.27
2022-08-11T12:29:32.332Z,23.15
2022-08-11T12:32:08.193Z,21.57
2022-08-11T12:34:41.328Z,21.10
2022-08-11T12:37:17.268Z,18.23
2022-08-11T12:40:49.595Z,20.43
2022-08-11T12:43:20.748Z,19.60
2022-08-11T12:45:41.542Z,17.07
2022-08-11T12:48:59.910Z,18.42
2022-08-11T12:52:00.848Z,22.02
2022-08-11T12:54:33.708Z,18.45
2022-08-11T12:57:37.247Z,20.43
2022-08-11T13:00:24.699Z,18.32
2022-08-11T13:03:16.103Z,16.85
2022-08-11T13:05:50.723Z,17.85
2022-08-11T13:08:25.932Z,18.17
2022-08-11T13:11:19.245Z,19.40
2022-08-11T13:13:57.848Z,20.70
2022-08-11T13:16:39.792Z,18.00
2022-08-11T13:19:13.538Z,19.00
2022-08-11T13:21:46.680Z,19.98
2022-08-11T13:24:19.871Z,19.45
2022-08-11T13:26:53.187Z,17.67
2022-08-11T13:29:28.313Z,18.45
2022-08-11T13:32:02.088Z,20.30
2022-08-11T13:34:37.533Z,19.37
2022-08-11T13:37:13.363Z,18.50
2022-08-11T13:39:48.018Z,20.20
2022-08-11T13:42:22.711Z,19.45
2022-08-11T13:44:56.565Z,20.68
2022-08-11T13:47:30.178Z,20.10
2022-08-11T13:50:03.688Z,24.77
2022-08-11T13:52:39.655Z,18.62
2022-08-11T13:55:51.199Z,21.15
2022-08-11T13:58:18.358Z,22.62
2022-08-11T14:00:32.060Z,18.98
2022-08-11T14:03:09.421Z,21.20
2022-08-11T14:05:49.337Z,23.55
2022-08-11T14:08:37.085Z,19.52
2022-08-11T14:12:21.691Z,22.87
2022-08-11T14:13:58.907Z,22.00
2022-08-11T14:16:34.638Z,21.12
2022-08-11T14:19:11.641Z,18.17
2022-08-11T14:22:07.685Z,22.15
2022-08-11T14:24:53.189Z,21.37
2022-08-11T14:28:32.503Z,22.22
2022-08-11T14:30:02.834Z,34.98
2022-08-11T14:32:35.942Z,27.10
2022-08-11T14:35:12.021Z,33.50
2022-08-11T14:37:45.109Z,21.20
2022-08-11T14:40:20.974Z,18.05
2022-08-11T14:43:11.584Z,23.00
2022-08-11T14:46:03.607Z,19.17
2022-08-11T14:48:38.182Z,17.87
2022-08-11T14:51:11.066Z,17.30
2022-08-11T14:53:58.327Z,19.90
2022-08-11T14:56:37.341Z,18.82
2022-08-11T14:59:11.393Z,17.95
2022-08-11T15:04:36.637Z,23.57
2022-08-11T15:07:16.805Z,19.98
2022-08-11T15:10:11.830Z,20.32
2022-08-11T15:12:33.357Z,22.05
2022-08-11T15:15:14.574Z,22.85
2022-08-11T15:17:49.649Z,18.82
2022-08-11T15:20:42.152Z,23.40
2022-08-11T15:23:32.846Z,20.52
2022-08-11T15:26:55.185Z,20.62
2022-08-11T15:29:49.547Z,17.60
2022-08-11T15:32:23.101Z,18.57
2022-08-11T15:35:21.628Z,17.67
2022-08-11T15:37:59.808Z,17.67
2022-08-11T15:40:55.519Z,20.08
2022-08-11T15:44:00.269Z,16.25
2022-08-11T15:46:43.704Z,17.30
2022-08-11T15:50:11.391Z,19.60
2022-08-11T15:52:06.040Z,19.05
2022-08-11T15:54:42.434Z,20.55
2022-08-11T15:57:39.425Z,17.02
2022-08-11T16:00:29.438Z,21.50
2022-08-11T16:03:20.409Z,19.92
2022-08-11T16:05:54.164Z,19.20
2022-08-11T16:08:32.951Z,17.50
2022-08-11T16:11:03.966Z,26.75
2022-08-11T16:13:42.775Z,21.17
2022-08-11T16:16:16.756Z,19.00
2022-08-11T16:18:58.371Z,24.10
2022-08-11T16:21:40.984Z,25.27
2022-08-11T16:27:01.359Z,23.70
2022-08-11T16:27:10.190Z,26.52
2022-08-11T16:29:26.729Z,21.25
2022-08-11T16:32:18.325Z,23.15
2022-08-11T16:35:19.402Z,20.57
2022-08-11T16:38:11.508Z,25.00
2022-08-11T16:40:45.440Z,22.25
